createdAt,value
2017-11-06T00:01:24.335Z,12.53
2017-11-06T00:03:52.687Z,12.23
2017-11-06T00:06:21.043Z,11.67
2017-11-06T00:08:49.439Z,12.93
2017-11-06T00:11:18.563Z,12.97
2017-11-06T00:13:47.907Z,12.53
2017-11-06T00:16:16.280Z,12.40
2017-11-06T00:18:45.586Z,12.43
2017-11-06T00:21:14.082Z,13.97
2017-11-06T00:23:45.119Z,12.83
2017-11-06T00:26:14.273Z,12.57
2017-11-06T00:28:42.663Z,11.70
2017-11-06T00:31:11.024Z,13.10
2017-11-06T00:33:39.375Z,12.50
2017-11-06T00:36:07.760Z,11.13
2017-11-06T00:38:36.127Z,12.33
2017-11-06T00:41:04.530Z,11.77
2017-11-06T00:43:32.884Z,11.47
2017-11-06T00:46:01.241Z,11.17
2017-11-06T00:48:30.414Z,11.70
2017-11-06T00:50:59.030Z,11.70
2017-11-06T00:53:28.161Z,11.63
2017-11-06T00:55:56.808Z,11.13
2017-11-06T00:58:25.932Z,11.70
2017-11-06T01:00:54.283Z,12.47
2017-11-06T01:03:24.407Z,12.67
2017-11-06T01:05:53.532Z,11.83
2017-11-06T01:08:21.887Z,11.30
2017-11-06T01:10:50.276Z,12.00
2017-11-06T01:13:18.631Z,11.43
2017-11-06T01:15:47.406Z,12.27
2017-11-06T01:18:16.554Z,12.67
2017-11-06T01:20:44.915Z,12.20
2017-11-06T01:23:13.316Z,11.87
2017-11-06T01:25:41.667Z,11.87
2017-11-06T01:28:10.027Z,11.50
2017-11-06T01:30:39.199Z,11.83
2017-11-06T01:33:07.554Z,11.23
2017-11-06T01:35:35.568Z,11.87
2017-11-06T01:38:05.180Z,12.10
2017-11-06T01:40:33.793Z,12.13
2017-11-06T01:43:03.175Z,12.17
2017-11-06T01:45:30.848Z,12.60
2017-11-06T01:48:00.197Z,11.70
2017-11-06T01:50:28.610Z,11.60
2017-11-06T01:52:56.966Z,12.53
2017-11-06T01:55:26.084Z,12.40
2017-11-06T01:57:54.147Z,12.73
2017-11-06T02:00:22.914Z,12.60
2017-11-06T02:02:50.578Z,12.60
2017-11-06T02:05:18.954Z,13.37
2017-11-06T02:07:49.279Z,12.40
2017-11-06T02:10:17.675Z,12.80
2017-11-06T02:12:46.803Z,13.47
2017-11-06T02:15:15.157Z,12.20
2017-11-06T02:17:43.535Z,12.97
2017-11-06T02:20:11.542Z,13.80
2017-11-06T02:22:39.589Z,12.53
2017-11-06T02:25:07.248Z,13.63
2017-11-06T02:27:35.260Z,12.97
2017-11-06T02:30:03.323Z,12.93
2017-11-06T02:32:32.455Z,14.13
2017-11-06T02:35:01.231Z,14.10
2017-11-06T02:37:29.649Z,14.13
2017-11-06T02:39:58.221Z,13.70
2017-11-06T02:42:27.828Z,14.87
2017-11-06T02:44:55.844Z,14.50
2017-11-06T02:47:24.199Z,13.73
2017-11-06T02:49:52.579Z,13.40
2017-11-06T02:52:20.931Z,13.20
2017-11-06T02:54:49.310Z,13.20
2017-11-06T02:57:17.666Z,14.73
2017-11-06T02:59:46.840Z,14.40
2017-11-06T03:02:16.354Z,14.90
2017-11-06T03:04:44.715Z,14.93
2017-11-06T03:07:13.086Z,14.07
2017-11-06T03:09:41.446Z,14.90
2017-11-06T03:12:11.742Z,14.83
2017-11-06T03:14:40.103Z,14.00
2017-11-06T03:17:09.222Z,14.50
2017-11-06T03:19:37.603Z,14.63
2017-11-06T03:22:07.579Z,15.03
2017-11-06T03:24:35.935Z,13.77
2017-11-06T03:27:04.295Z,14.03
2017-11-06T03:29:32.684Z,14.37
2017-11-06T03:32:01.048Z,15.17
2017-11-06T03:34:29.402Z,15.20
2017-11-06T03:36:58.690Z,15.50
2017-11-06T03:39:27.606Z,14.63
2017-11-06T03:41:57.104Z,16.00
2017-11-06T03:44:25.463Z,16.07
2017-11-06T03:46:55.556Z,14.17
2017-11-06T03:49:23.946Z,15.73
2017-11-06T03:51:54.128Z,15.37
2017-11-06T03:54:22.486Z,15.60
2017-11-06T03:56:50.869Z,15.87
2017-11-06T03:59:19.218Z,16.40
2017-11-06T04:01:47.616Z,15.67
2017-11-06T04:04:15.979Z,16.03
2017-11-06T04:06:44.335Z,15.43
2017-11-06T04:09:13.495Z,15.67
2017-11-06T04:11:41.510Z,16.57
2017-11-06T04:14:10.640Z,16.03
2017-11-06T04:16:40.007Z,15.30
2017-11-06T04:19:09.135Z,16.20
2017-11-06T04:21:37.488Z,16.43
2017-11-06T04:24:05.869Z,16.33
2017-11-06T04:26:34.891Z,16.13
2017-11-06T04:29:02.556Z,15.97
2017-11-06T04:31:30.952Z,16.10
2017-11-06T04:33:58.967Z,16.20
2017-11-06T04:36:27.392Z,15.83
2017-11-06T04:38:55.792Z,15.97
2017-11-06T04:41:24.142Z,15.23
2017-11-06T04:43:52.504Z,15.87
2017-11-06T04:46:20.911Z,15.20
2017-11-06T04:48:49.271Z,16.00
2017-11-06T04:51:18.755Z,16.47
2017-11-06T04:53:47.107Z,16.47
2017-11-06T04:56:16.240Z,16.63
2017-11-06T04:58:44.639Z,16.47
2017-11-06T05:01:12.999Z,16.07
2017-11-06T05:03:41.354Z,16.20
2017-11-06T05:06:09.750Z,16.37
2017-11-06T05:08:38.111Z,16.70
2017-11-06T05:11:06.470Z,17.33
2017-11-06T05:13:35.098Z,17.07
2017-11-06T05:16:04.434Z,17.60
2017-11-06T05:18:32.806Z,17.87
2017-11-06T05:21:01.162Z,17.20
2017-11-06T05:23:29.562Z,16.63
2017-11-06T05:25:57.924Z,17.03
2017-11-06T05:28:26.285Z,16.47
2017-11-06T05:30:54.490Z,17.93
2017-11-06T05:33:22.852Z,17.10
2017-11-06T05:35:51.992Z,18.57
2017-11-06T05:38:20.956Z,16.50
2017-11-06T05:40:49.123Z,17.00
2017-11-06T05:43:17.475Z,18.33
2017-11-06T05:45:46.839Z,17.47
2017-11-06T05:48:15.770Z,17.50
2017-11-06T05:50:44.127Z,17.57
2017-11-06T05:53:12.498Z,16.43
2017-11-06T05:55:40.854Z,17.40
2017-11-06T05:58:10.011Z,18.00
2017-11-06T06:00:39.336Z,17.63
2017-11-06T06:03:07.682Z,17.67
2017-11-06T06:05:36.058Z,17.83
2017-11-06T06:08:04.449Z,17.07
2017-11-06T06:10:32.759Z,17.67
2017-11-06T06:13:01.890Z,17.10
2017-11-06T06:15:30.498Z,17.47
2017-11-06T06:17:58.898Z,17.27
2017-11-06T06:20:27.254Z,17.57
2017-11-06T06:22:55.607Z,18.17
2017-11-06T06:25:23.982Z,16.93
2017-11-06T06:27:52.366Z,18.40
2017-11-06T06:30:20.723Z,17.93
2017-11-06T06:32:49.078Z,18.97
2017-11-06T06:35:18.231Z,16.73
2017-11-06T06:37:46.588Z,16.93
2017-11-06T06:40:14.943Z,17.63
2017-11-06T06:42:44.091Z,17.30
2017-11-06T06:45:12.446Z,18.37
2017-11-06T06:47:40.839Z,18.13
2017-11-06T06:50:09.191Z,21.93
2017-11-06T06:52:37.201Z,24.70
2017-11-06T06:55:05.594Z,22.90
2017-11-06T06:57:33.947Z,20.37
2017-11-06T07:00:02.305Z,21.10
2017-11-06T07:02:30.942Z,20.13
2017-11-06T07:04:59.316Z,18.63
2017-11-06T07:07:27.678Z,19.93
2017-11-06T07:09:55.720Z,19.20
2017-11-06T07:12:24.378Z,18.60
2017-11-06T07:14:54.042Z,18.13
2017-11-06T07:17:21.701Z,17.50
2017-11-06T07:19:51.039Z,18.63
2017-11-06T07:22:19.662Z,17.70
2017-11-06T07:24:48.019Z,17.90
2017-11-06T07:27:16.286Z,17.77
2017-11-06T07:29:44.662Z,17.90
2017-11-06T07:32:13.051Z,18.17
2017-11-06T07:34:41.406Z,17.47
2017-11-06T07:37:10.541Z,17.63
2017-11-06T07:39:38.913Z,17.20
2017-11-06T07:42:07.266Z,18.43
2017-11-06T07:44:35.626Z,17.50
2017-11-06T07:47:04.770Z,17.50
2017-11-06T07:49:33.126Z,17.37
2017-11-06T07:52:01.535Z,16.77
2017-11-06T07:54:29.892Z,18.73
2017-11-06T07:56:58.246Z,18.00
2017-11-06T07:59:27.406Z,18.10
2017-11-06T08:01:55.754Z,18.37
2017-11-06T08:04:24.110Z,19.13
2017-11-06T08:06:52.506Z,17.77
2017-11-06T08:09:21.842Z,18.93
2017-11-06T08:11:50.211Z,18.97
2017-11-06T08:14:19.597Z,19.27
2017-11-06T08:16:47.959Z,17.77
2017-11-06T08:19:16.355Z,18.63
2017-11-06T08:21:44.903Z,18.53
2017-11-06T08:24:13.258Z,19.07
2017-11-06T08:26:42.214Z,19.47
2017-11-06T08:29:11.602Z,18.13
2017-11-06T08:31:39.995Z,18.60
2017-11-06T08:34:09.183Z,18.80
2017-11-06T08:36:38.302Z,20.50
2017-11-06T08:39:09.902Z,19.53
2017-11-06T08:41:38.510Z,19.93
2017-11-06T08:44:06.862Z,19.47
2017-11-06T08:46:35.254Z,18.10
2017-11-06T08:49:03.878Z,18.53
2017-11-06T08:51:32.235Z,18.30
2017-11-06T08:54:01.590Z,18.70
2017-11-06T08:56:29.603Z,18.10
2017-11-06T08:58:59.958Z,17.20
2017-11-06T09:01:28.336Z,18.20
2017-11-06T09:03:56.685Z,18.67
2017-11-06T09:06:25.082Z,16.80
2017-11-06T09:08:54.699Z,17.30
2017-11-06T09:11:23.055Z,16.23
2017-11-06T09:13:52.402Z,15.13
2017-11-06T09:16:21.523Z,15.90
2017-11-06T09:18:49.874Z,14.80
2017-11-06T09:21:19.033Z,14.10
2017-11-06T09:23:47.641Z,15.30
2017-11-06T09:26:16.763Z,12.97
2017-11-06T09:28:47.061Z,13.10
2017-11-06T09:31:16.178Z,14.07
2017-11-06T09:33:44.567Z,13.70
2017-11-06T09:36:12.919Z,13.73
2017-11-06T09:38:42.035Z,13.70
2017-11-06T09:41:10.407Z,14.27
2017-11-06T09:43:38.763Z,12.90
2017-11-06T09:46:07.911Z,13.60
2017-11-06T09:48:38.339Z,12.40
2017-11-06T09:51:07.755Z,11.70
2017-11-06T09:53:36.116Z,11.90
2017-11-06T09:56:04.462Z,11.60
2017-11-06T09:58:32.834Z,11.87
2017-11-06T10:01:01.233Z,11.33
2017-11-06T10:03:29.573Z,11.53
2017-11-06T10:05:58.690Z,10.87
2017-11-06T10:08:29.014Z,10.57
2017-11-06T10:10:57.367Z,10.13
2017-11-06T10:13:26.146Z,10.73
2017-11-06T10:15:54.538Z,10.33
2017-11-06T10:18:23.654Z,10.13
2017-11-06T10:20:52.014Z,10.40
2017-11-06T10:23:25.710Z,10.33
2017-11-06T10:25:54.486Z,10.07
2017-11-06T10:28:22.858Z,9.97
2017-11-06T10:30:50.862Z,10.33
2017-11-06T10:33:18.559Z,11.20
2017-11-06T10:35:46.575Z,11.37
2017-11-06T10:38:14.937Z,11.97
2017-11-06T10:40:42.631Z,11.60
2017-11-06T10:43:11.746Z,11.10
2017-11-06T10:45:40.102Z,12.03
2017-11-06T10:48:09.875Z,12.83
2017-11-06T10:50:37.890Z,12.57
2017-11-06T10:53:06.498Z,12.13
2017-11-06T10:55:34.527Z,12.40
2017-11-06T10:58:04.581Z,13.00
2017-11-06T11:00:32.585Z,12.53
2017-11-06T11:03:01.550Z,12.00
2017-11-06T11:05:29.931Z,13.27
2017-11-06T11:07:58.091Z,13.00
2017-11-06T11:10:26.483Z,13.47
2017-11-06T11:12:54.490Z,12.70
2017-11-06T11:15:22.506Z,13.10
2017-11-06T11:17:50.891Z,12.53
2017-11-06T11:20:19.244Z,12.67
2017-11-06T11:22:48.713Z,12.70
2017-11-06T11:25:17.091Z,13.30
2017-11-06T11:27:45.442Z,12.37
2017-11-06T11:30:13.846Z,13.17
2017-11-06T11:32:43.149Z,12.60
2017-11-06T11:35:11.495Z,12.30
2017-11-06T11:37:41.575Z,13.17
2017-11-06T11:40:09.930Z,12.23
2017-11-06T11:42:40.371Z,12.07
2017-11-06T11:45:09.511Z,11.97
2017-11-06T11:47:37.876Z,12.23
2017-11-06T11:50:06.268Z,11.63
2017-11-06T11:52:34.627Z,11.37
2017-11-06T11:55:02.988Z,11.87
2017-11-06T11:57:31.498Z,11.90
2017-11-06T11:59:59.863Z,11.70
2017-11-06T12:02:29.207Z,12.20
2017-11-06T12:04:57.579Z,12.10
2017-11-06T12:07:25.977Z,12.17
2017-11-06T12:09:54.326Z,11.30
2017-11-06T12:12:22.686Z,11.50
2017-11-06T12:14:51.063Z,11.67
2017-11-06T12:17:19.450Z,11.90
2017-11-06T12:24:36.982Z,14.37
2017-11-06T12:27:06.397Z,13.23
2017-11-06T12:29:34.795Z,12.27
2017-11-06T12:32:03.574Z,11.57
2017-11-06T12:34:32.709Z,13.00
2017-11-06T12:37:01.871Z,11.70
2017-11-06T12:39:30.227Z,12.13
2017-11-06T12:41:58.582Z,12.37
2017-11-06T12:44:26.983Z,11.77
2017-11-06T12:46:55.335Z,12.80
2017-11-06T12:49:23.695Z,11.57
2017-11-06T12:51:52.838Z,13.03
2017-11-06T12:54:21.223Z,11.50
2017-11-06T12:56:50.370Z,12.27
2017-11-06T12:59:19.482Z,11.90
2017-11-06T13:01:47.868Z,11.53
2017-11-06T13:04:16.228Z,12.17
2017-11-06T13:06:44.834Z,12.63
2017-11-06T13:09:13.344Z,11.90
2017-11-06T13:11:42.663Z,11.80
2017-11-06T13:14:11.019Z,11.40
2017-11-06T13:16:40.357Z,12.20
2017-11-06T13:19:09.480Z,12.50
2017-11-06T13:21:37.871Z,11.80
2017-11-06T13:24:06.227Z,11.93
2017-11-06T13:26:35.658Z,12.23
2017-11-06T13:29:04.168Z,12.67
2017-11-06T13:31:32.526Z,11.43
2017-11-06T13:34:00.872Z,12.00
2017-11-06T13:36:30.371Z,12.97
2017-11-06T13:38:58.990Z,11.30
2017-11-06T13:41:28.382Z,12.03
2017-11-06T13:43:56.770Z,11.50
2017-11-06T13:46:25.132Z,11.03
2017-11-06T13:48:53.487Z,11.53
2017-11-06T13:51:21.858Z,11.70
2017-11-06T13:53:50.222Z,10.97
2017-11-06T13:56:19.383Z,11.10
2017-11-06T13:58:47.740Z,10.43
2017-11-06T14:01:16.098Z,11.23
2017-11-06T14:03:44.507Z,11.43
2017-11-06T14:06:12.869Z,10.20
2017-11-06T14:08:42.245Z,10.53
2017-11-06T14:11:10.644Z,10.83
2017-11-06T14:13:40.026Z,10.33
2017-11-06T14:16:08.382Z,10.30
2017-11-06T14:18:37.350Z,10.13
2017-11-06T14:21:06.719Z,10.50
2017-11-06T14:23:35.067Z,9.60
2017-11-06T14:26:03.446Z,9.23
2017-11-06T14:28:32.562Z,9.13
2017-11-06T14:31:01.842Z,9.83
2017-11-06T14:33:30.195Z,9.73
2017-11-06T14:36:04.305Z,8.93
2017-11-06T14:38:32.665Z,9.10
2017-11-06T14:41:00.676Z,8.10
2017-11-06T14:43:29.055Z,8.03
2017-11-06T14:45:58.290Z,8.60
2017-11-06T14:48:26.642Z,8.27
2017-11-06T14:50:54.995Z,8.87
2017-11-06T14:53:24.133Z,8.37
2017-11-06T14:55:52.490Z,8.73
2017-11-06T14:58:20.863Z,9.03
2017-11-06T15:00:48.522Z,8.30
2017-11-06T15:03:16.911Z,8.70
2017-11-06T15:05:45.267Z,8.20
2017-11-06T15:08:14.386Z,8.50
2017-11-06T15:10:42.063Z,8.13
2017-11-06T15:13:09.727Z,7.03
2017-11-06T15:15:37.406Z,7.67
2017-11-06T15:18:05.098Z,7.97
2017-11-06T15:20:34.235Z,8.13
2017-11-06T15:23:02.262Z,7.97
2017-11-06T15:25:31.387Z,7.67
2017-11-06T15:27:59.768Z,7.67
2017-11-06T15:30:28.125Z,7.77
2017-11-06T15:32:57.266Z,7.57
2017-11-06T15:35:25.622Z,8.07
2017-11-06T15:37:57.402Z,7.37
2017-11-06T15:40:25.743Z,7.60
2017-11-06T15:42:55.125Z,7.23
2017-11-06T15:45:24.246Z,6.93
2017-11-06T15:47:52.634Z,7.77
2017-11-06T15:50:20.986Z,7.27
2017-11-06T15:52:51.358Z,7.63
2017-11-06T15:55:19.733Z,7.17
2017-11-06T15:57:48.095Z,8.20
2017-11-06T16:00:16.450Z,7.10
2017-11-06T16:02:45.835Z,7.87
2017-11-06T16:05:14.961Z,7.50
2017-11-06T16:07:43.362Z,7.87
2017-11-06T16:10:12.735Z,8.60
2017-11-06T16:12:41.087Z,8.20
2017-11-06T16:15:10.344Z,8.20
2017-11-06T16:17:39.725Z,11.23
2017-11-06T16:20:08.088Z,12.00
2017-11-06T16:22:36.474Z,13.37
2017-11-06T16:25:04.828Z,13.63
2017-11-06T16:27:33.971Z,13.70
2017-11-06T16:30:03.355Z,10.90
2017-11-06T16:32:31.748Z,9.90
2017-11-06T16:35:00.106Z,10.87
2017-11-06T16:37:28.460Z,9.27
2017-11-06T16:39:56.959Z,8.20
2017-11-06T16:42:25.310Z,7.70
2017-11-06T16:44:54.435Z,7.00
2017-11-06T16:47:23.802Z,7.10
2017-11-06T16:49:52.929Z,7.30
2017-11-06T16:52:21.308Z,7.20
2017-11-06T16:54:50.202Z,6.97
2017-11-06T16:57:18.559Z,7.10
2017-11-06T16:59:47.765Z,7.50
2017-11-06T17:02:15.931Z,6.83
2017-11-06T17:04:44.278Z,7.23
2017-11-06T17:07:12.663Z,7.27
2017-11-06T17:09:41.783Z,7.00
2017-11-06T17:12:10.132Z,7.70
2017-11-06T17:14:41.303Z,6.87
2017-11-06T17:17:09.651Z,6.93
2017-11-06T17:19:38.776Z,7.80
2017-11-06T17:22:07.416Z,7.80
2017-11-06T17:24:36.675Z,7.00
2017-11-06T17:27:05.023Z,7.00
2017-11-06T17:29:35.126Z,7.70
2017-11-06T17:32:03.551Z,6.70
2017-11-06T17:34:32.844Z,6.67
2017-11-06T17:37:01.190Z,7.23
2017-11-06T17:39:30.303Z,7.10
2017-11-06T17:41:58.685Z,6.37
2017-11-06T17:44:27.037Z,6.10
2017-11-06T17:46:55.658Z,6.57
2017-11-06T17:49:24.039Z,6.77
2017-11-06T17:51:52.420Z,6.50
2017-11-06T17:54:20.771Z,7.13
2017-11-06T17:56:49.159Z,6.33
2017-11-06T17:59:17.499Z,6.27
2017-11-06T18:01:45.864Z,6.97
2017-11-06T18:04:14.504Z,7.23
2017-11-06T18:06:42.850Z,7.33
2017-11-06T18:09:11.650Z,11.90
2017-11-06T18:11:40.011Z,10.70
2017-11-06T18:14:08.663Z,8.50
2017-11-06T18:16:37.019Z,7.97
2017-11-06T18:19:05.371Z,7.43
2017-11-06T18:21:33.586Z,6.73
2017-11-06T18:24:01.942Z,7.60
2017-11-06T18:26:30.299Z,7.00
2017-11-06T18:28:58.666Z,7.10
2017-11-06T18:31:27.014Z,7.03
2017-11-06T18:33:55.394Z,7.37
2017-11-06T18:36:23.742Z,7.00
2017-11-06T18:38:52.095Z,6.77
2017-11-06T18:41:20.483Z,6.50
2017-11-06T18:43:49.822Z,6.10
2017-11-06T18:46:18.174Z,6.87
2017-11-06T18:48:47.538Z,6.70
2017-11-06T18:51:15.891Z,7.00
2017-11-06T18:53:45.035Z,7.00
2017-11-06T18:56:13.218Z,6.57
2017-11-06T18:58:41.574Z,7.37
2017-11-06T19:01:10.070Z,7.17
2017-11-06T19:03:38.423Z,7.27
2017-11-06T19:06:06.778Z,6.97
2017-11-06T19:08:35.933Z,7.20
2017-11-06T19:11:05.082Z,7.13
2017-11-06T19:13:34.156Z,7.63
2017-11-06T19:16:02.535Z,7.23
2017-11-06T19:18:35.418Z,7.60
2017-11-06T19:21:04.578Z,7.10
2017-11-06T19:23:32.967Z,7.03
2017-11-06T19:26:01.387Z,6.27
2017-11-06T19:28:29.806Z,7.07
2017-11-06T19:30:59.206Z,7.07
2017-11-06T19:33:28.571Z,7.00
2017-11-06T19:35:56.945Z,6.47
2017-11-06T19:38:26.062Z,6.40
2017-11-06T19:40:54.587Z,7.07
2017-11-06T19:43:22.939Z,6.77
2017-11-06T19:45:52.058Z,6.20
2017-11-06T19:48:20.455Z,6.67
2017-11-06T19:50:49.595Z,6.70
2017-11-06T19:53:17.946Z,7.13
2017-11-06T19:55:46.001Z,7.13
2017-11-06T19:58:15.114Z,7.10
2017-11-06T20:00:43.467Z,7.17
2017-11-06T20:03:12.919Z,23.77
2017-11-06T20:05:41.270Z,8.93
2017-11-06T20:08:11.615Z,7.40
2017-11-06T20:10:40.035Z,7.57
2017-11-06T20:13:13.131Z,7.13
2017-11-06T20:15:41.781Z,6.47
2017-11-06T20:18:10.345Z,6.30
2017-11-06T20:20:38.383Z,6.53
2017-11-06T20:23:07.565Z,7.10
2017-11-06T20:25:36.245Z,6.53
2017-11-06T20:28:04.596Z,6.43
2017-11-06T20:30:32.996Z,6.90
2017-11-06T20:33:00.991Z,6.90
2017-11-06T20:35:29.611Z,7.00
2017-11-06T20:37:58.986Z,6.90
2017-11-06T20:40:27.376Z,7.27
2017-11-06T20:42:55.723Z,7.37
2017-11-06T20:45:24.148Z,7.50
2017-11-06T20:47:52.215Z,7.30
2017-11-06T20:50:20.219Z,7.20
2017-11-06T20:52:48.799Z,7.03
2017-11-06T20:55:17.171Z,18.40
2017-11-06T20:57:44.830Z,8.10
2017-11-06T21:00:13.204Z,9.50
2017-11-06T21:02:43.243Z,16.07
2017-11-06T21:05:11.625Z,7.87
2017-11-06T21:07:40.258Z,7.87
2017-11-06T21:10:08.643Z,7.57
2017-11-06T21:12:39.039Z,8.00
2017-11-06T21:15:07.400Z,8.10
2017-11-06T21:17:36.520Z,8.03
2017-11-06T21:20:04.215Z,8.47
2017-11-06T21:22:32.591Z,8.17
2017-11-06T21:25:01.956Z,8.13
2017-11-06T21:27:30.323Z,8.07
2017-11-06T21:30:05.026Z,8.20
2017-11-06T21:32:33.399Z,7.73
2017-11-06T21:35:03.730Z,7.77
2017-11-06T21:37:32.094Z,8.40
2017-11-06T21:40:00.453Z,8.27
2017-11-06T21:42:28.647Z,8.10
2017-11-06T21:44:58.978Z,7.97
2017-11-06T21:47:27.334Z,7.97
2017-11-06T21:49:55.739Z,8.20
2017-11-06T21:52:24.860Z,8.57
2017-11-06T21:54:53.259Z,7.47
2017-11-06T21:57:21.610Z,7.77
2017-11-06T21:59:49.967Z,7.87
2017-11-06T22:02:18.336Z,8.20
2017-11-06T22:04:46.714Z,8.30
2017-11-06T22:07:15.967Z,7.50
2017-11-06T22:09:44.322Z,8.13
2017-11-06T22:12:12.374Z,8.63
2017-11-06T22:14:41.490Z,9.70
2017-11-06T22:17:09.842Z,8.00
2017-11-06T22:19:38.981Z,8.30
2017-11-06T22:22:08.271Z,8.33
2017-11-06T22:24:36.622Z,9.53
2017-11-06T22:27:05.743Z,11.13
2017-11-06T22:29:34.194Z,10.97
2017-11-06T22:32:04.534Z,9.53
2017-11-06T22:34:32.887Z,9.03
2017-11-06T22:37:02.040Z,8.57
2017-11-06T22:39:31.414Z,8.83
2017-11-06T22:42:00.774Z,8.93
2017-11-06T22:44:29.145Z,8.53
2017-11-06T22:46:58.494Z,9.20
2017-11-06T22:49:26.847Z,8.90
2017-11-06T22:51:56.943Z,9.53
2017-11-06T22:54:25.318Z,8.60
2017-11-06T22:56:53.707Z,8.40
2017-11-06T22:59:22.058Z,8.10
2017-11-06T23:01:51.371Z,9.90
2017-11-06T23:04:19.760Z,8.40
2017-11-06T23:06:48.112Z,9.33
2017-11-06T23:09:16.466Z,8.50
2017-11-06T23:11:44.850Z,9.07
2017-11-06T23:14:13.255Z,9.57
2017-11-06T23:16:41.599Z,9.00
2017-11-06T23:19:09.983Z,9.13
2017-11-06T23:21:38.334Z,9.20
2017-11-06T23:24:06.686Z,8.87
2017-11-06T23:26:36.014Z,9.40
2017-11-06T23:29:04.367Z,9.70
2017-11-06T23:31:33.485Z,10.40
2017-11-06T23:34:01.676Z,9.80
2017-11-06T23:36:34.418Z,8.97
2017-11-06T23:39:03.014Z,9.50
2017-11-06T23:41:34.146Z,9.73
2017-11-06T23:44:03.299Z,9.57
2017-11-06T23:46:31.655Z,8.93
2017-11-06T23:49:00.011Z,9.90
2017-11-06T23:51:28.209Z,9.20
2017-11-06T23:53:55.870Z,9.20
2017-11-06T23:56:24.031Z,9.43
2017-11-06T23:58:53.214Z,9.50
